Time;durP1;ratioP1;P1;durP2;ratioP2;P2;SDS_P1;SDS_P2;PMS_P1;PMS_P2;Temp;Humidity;BMP_temperature;BMP_pressure;BME280_temperature;BME280_humidity;BME280_pressure;Samples;Min_cycle;Max_cycle;Signal;HPM_P1;HPM_P2
2022/09/30 00:00:22;;;;;;;10.63;1.70;;;19.20;71.70;;;;;;5164801;23;20091;-44
2022/09/30 00:02:44;;;;;;;6.78;1.48;;;19.20;71.70;;;;;;5165160;23;20113;-45
2022/09/30 00:05:07;;;;;;;6.18;1.15;;;19.20;71.70;;;;;;5165988;23;20396;-50
2022/09/30 00:07:30;;;;;;;7.65;1.42;;;19.20;71.70;;;;;;5166302;23;20058;-45
2022/09/30 00:09:52;;;;;;;3.13;1.10;;;19.20;71.60;;;;;;5165999;23;20016;-44
2022/09/30 00:12:15;;;;;;;7.05;1.17;;;19.20;71.60;;;;;;5167714;23;20432;-50
2022/09/30 00:14:38;;;;;;;2.35;1.13;;;19.30;71.50;;;;;;5137467;23;20016;-47
2022/09/30 00:17:00;;;;;;;3.92;1.45;;;19.30;71.50;;;;;;5169117;23;20377;-47
2022/09/30 00:19:23;;;;;;;3.50;1.30;;;19.30;71.30;;;;;;5168440;23;20013;-48
2022/09/30 00:21:45;;;;;;;2.78;1.17;;;19.40;71.20;;;;;;5161204;23;20016;-46
2022/09/30 00:24:08;;;;;;;3.13;1.35;;;19.40;71.10;;;;;;5167860;23;20078;-42
2022/09/30 00:26:32;;;;;;;3.78;1.17;;;19.50;71.00;;;;;;5169243;23;20478;-48
2022/09/30 00:28:57;;;;;;;2.17;0.93;;;19.50;70.90;;;;;;5168906;23;20036;-45
2022/09/30 00:31:21;;;;;;;3.83;1.10;;;19.50;70.80;;;;;;5169038;23;20027;-47
2022/09/30 00:34:05;;;;;;;3.00;1.00;;;19.60;70.60;;;;;;5168242;23;20058;-47
2022/09/30 00:36:26;;;;;;;8.38;1.35;;;19.60;70.60;;;;;;5160839;23;20467;-44
2022/09/30 00:38:49;;;;;;;3.53;1.10;;;19.60;70.60;;;;;;5166950;23;20047;-42
2022/09/30 00:41:12;;;;;;;4.22;1.27;;;19.60;70.60;;;;;;5137540;23;20019;-43
2022/09/30 00:43:50;;;;;;;3.45;1.27;;;19.60;70.60;;;;;;5159691;23;20012;-45
2022/09/30 00:46:21;;;;;;;3.90;0.93;;;19.60;70.60;;;;;;5135900;23;20040;-43
2022/09/30 00:48:44;;;;;;;2.92;1.00;;;19.70;70.50;;;;;;5166420;23;20035;-42
2022/09/30 00:51:07;;;;;;;3.00;1.08;;;19.60;70.40;;;;;;5164630;23;20097;-47
2022/09/30 00:53:54;;;;;;;3.55;1.30;;;19.70;70.40;;;;;;5166048;23;20031;-49
2022/09/30 00:56:18;;;;;;;3.78;1.00;;;19.70;70.40;;;;;;5157976;23;20334;-53
2022/09/30 00:58:49;;;;;;;5.35;1.40;;;19.70;70.50;;;;;;5157557;23;20098;-46
2022/09/30 01:01:13;;;;;;;3.80;1.35;;;19.70;70.40;;;;;;5166018;23;20016;-45
2022/09/30 01:03:40;;;;;;;2.55;0.80;;;19.70;70.40;;;;;;5164552;22;20063;-47
2022/09/30 01:06:03;;;;;;;3.78;1.13;;;19.70;70.30;;;;;;5164033;23;20028;-45
2022/09/30 01:08:27;;;;;;;2.53;0.93;;;19.70;70.30;;;;;;5165261;23;20020;-45
2022/09/30 01:10:49;;;;;;;;;;;19.70;70.20;;;;;;5165946;23;20047;-46
2022/09/30 01:13:12;;;;;;;3.38;1.10;;;19.70;70.00;;;;;;5163643;23;19908;-44
2022/09/30 01:16:16;;;;;;;5.07;1.20;;;19.70;69.80;;;;;;5164563;23;20099;-46
2022/09/30 01:18:57;;;;;;;6.75;1.08;;;19.70;69.70;;;;;;5165250;23;20091;-42
2022/09/30 01:21:19;;;;;;;5.10;1.35;;;19.70;69.70;;;;;;5165297;23;20020;-42
2022/09/30 01:24:11;;;;;;;9.73;1.48;;;19.70;69.90;;;;;;5166741;23;20439;-42
2022/09/30 01:26:36;;;;;;;7.63;1.42;;;19.70;69.90;;;;;;5153190;23;20126;-42
2022/09/30 01:29:24;;;;;;;5.78;1.40;;;19.70;69.90;;;;;;5140710;23;20016;-42
2022/09/30 01:31:56;;;;;;;4.75;1.00;;;19.80;69.80;;;;;;5173306;23;20301;-43
2022/09/30 01:34:36;;;;;;;4.78;1.10;;;19.80;69.70;;;;;;5169151;23;20436;-44
2022/09/30 01:37:09;;;;;;;3.78;1.30;;;19.80;69.70;;;;;;5157175;23;20015;-43
2022/09/30 01:39:58;;;;;;;2.08;1.05;;;19.70;69.70;;;;;;5165822;23;20056;-47
2022/09/30 01:42:24;;;;;;;3.17;0.90;;;19.80;69.80;;;;;;5165255;23;20498;-45
2022/09/30 01:45:02;;;;;;;2.88;0.95;;;19.80;69.80;;;;;;5156558;23;20079;-44
2022/09/30 01:47:28;;;;;;;2.47;0.93;;;19.80;69.80;;;;;;5166324;23;20040;-47
2022/09/30 01:50:00;;;;;;;2.30;0.55;;;19.80;69.90;;;;;;5157661;23;20054;-44
2022/09/30 01:52:46;;;;;;;3.03;1.08;;;19.80;69.90;;;;;;5165167;23;20016;-48
2022/09/30 01:55:35;;;;;;;3.53;1.00;;;19.80;69.80;;;;;;5164104;23;20027;-45
2022/09/30 01:58:04;;;;;;;6.93;1.40;;;19.80;69.70;;;;;;5164839;23;20032;-45
2022/09/30 02:00:27;;;;;;;4.18;1.15;;;19.80;69.60;;;;;;5163969;23;20020;-47
2022/09/30 02:03:06;;;;;;;4.50;1.03;;;19.80;69.70;;;;;;5164927;23;20023;-46
2022/09/30 02:05:42;;;;;;;3.10;1.02;;;19.90;69.90;;;;;;5157879;23;20016;-45
2022/09/30 02:08:12;;;;;;;5.55;1.38;;;19.80;70.00;;;;;;5165140;23;20024;-46
2022/09/30 02:10:43;;;;;;;3.65;1.08;;;19.80;70.20;;;;;;5166060;23;20012;-47
2022/09/30 02:13:36;;;;;;;5.22;1.05;;;19.90;70.20;;;;;;5167565;23;20089;-48
2022/09/30 02:16:11;;;;;;;5.00;1.08;;;19.90;70.10;;;;;;5160214;23;20364;-44
2022/09/30 02:18:52;;;;;;;4.85;1.42;;;19.90;70.00;;;;;;5160555;23;20016;-47
2022/09/30 02:21:25;;;;;;;4.18;1.15;;;19.90;69.90;;;;;;5168382;23;20039;-47
2022/09/30 02:23:51;;;;;;;3.53;1.27;;;19.90;70.00;;;;;;5169027;23;20122;-50
2022/09/30 02:26:28;;;;;;;8.23;1.38;;;19.90;70.00;;;;;;5165733;23;20110;-48
2022/09/30 02:29:12;;;;;;;2.55;1.02;;;19.90;70.10;;;;;;5164575;23;20022;-51
2022/09/30 02:31:39;;;;;;;3.00;0.90;;;19.90;70.00;;;;;;5158584;23;20352;-45
2022/09/30 02:34:21;;;;;;;4.95;1.27;;;19.90;70.00;;;;;;5166705;23;20016;-45
2022/09/30 02:40:14;;;;;;;3.75;1.00;;;20.00;69.90;;;;;;5164777;23;20059;-49
2022/09/30 02:42:38;;;;;;;4.50;0.80;;;20.00;69.80;;;;;;5165607;23;20012;-47
2022/09/30 02:45:07;;;;;;;4.28;0.82;;;20.00;69.80;;;;;;5136265;23;20066;-45
2022/09/30 02:47:33;;;;;;;2.33;0.75;;;20.00;69.80;;;;;;5166494;23;20421;-46
2022/09/30 02:50:01;;;;;;;2.53;0.80;;;20.00;69.80;;;;;;5156552;23;20012;-44
2022/09/30 02:52:26;;;;;;;1.63;0.90;;;19.90;69.80;;;;;;5165703;23;20047;-44
2022/09/30 02:54:56;;;;;;;1.85;0.88;;;20.00;69.90;;;;;;5166271;23;20105;-44
2022/09/30 02:57:19;;;;;;;2.95;0.88;;;20.00;69.90;;;;;;5166818;23;20016;-49
2022/09/30 02:59:42;;;;;;;2.13;1.00;;;20.00;69.90;;;;;;5159452;23;20016;-45
2022/09/30 03:02:04;;;;;;;1.95;0.70;;;20.00;70.00;;;;;;5160937;23;20019;-46
2022/09/30 03:04:30;;;;;;;2.10;0.93;;;20.00;69.90;;;;;;5169231;22;20012;-43
2022/09/30 03:06:53;;;;;;;4.10;0.80;;;20.00;69.90;;;;;;5169085;23;20024;-47
2022/09/30 03:09:16;;;;;;;2.58;0.70;;;20.00;70.00;;;;;;5145917;23;20011;-45
2022/09/30 03:11:39;;;;;;;2.03;0.80;;;20.00;70.00;;;;;;5161279;23;20012;-43
2022/09/30 03:14:18;;;;;;;2.93;0.73;;;20.00;70.10;;;;;;5170181;23;20085;-44
2022/09/30 03:17:16;;;;;;;2.25;1.02;;;20.00;70.10;;;;;;5154583;23;20029;-43
2022/09/30 03:20:13;;;;;;;5.10;1.30;;;20.00;70.10;;;;;;5165105;23;20043;-42
2022/09/30 03:23:01;;;;;;;3.85;1.40;;;20.00;70.30;;;;;;5165904;23;20008;-44
2022/09/30 03:25:29;;;;;;;14.75;1.73;;;20.10;70.70;;;;;;5166713;23;20012;-48
2022/09/30 03:28:20;;;;;;;12.48;1.63;;;20.10;70.70;;;;;;5167612;23;20024;-46
2022/09/30 03:30:50;;;;;;;6.07;1.60;;;20.20;70.30;;;;;;5169575;23;20012;-49
2022/09/30 03:33:24;;;;;;;6.95;1.40;;;20.20;70.80;;;;;;5169235;23;20067;-46
2022/09/30 03:36:00;;;;;;;4.10;1.30;;;20.30;71.00;;;;;;5137434;23;20523;-48
2022/09/30 03:38:40;;;;;;;3.38;1.13;;;20.30;70.90;;;;;;5170427;23;20444;-47
2022/09/30 03:41:24;;;;;;;6.80;1.08;;;20.40;70.70;;;;;;5169246;23;20023;-44
2022/09/30 03:43:50;;;;;;;3.60;0.70;;;20.40;71.10;;;;;;5160240;23;20020;-47
2022/09/30 03:46:20;;;;;;;4.03;0.90;;;20.50;70.50;;;;;;5169113;23;20261;-46
2022/09/30 03:48:44;;;;;;;10.77;1.13;;;20.50;70.40;;;;;;5159768;23;20023;-46
2022/09/30 03:51:09;;;;;;;3.13;1.05;;;20.50;70.20;;;;;;5168927;23;20391;-47
2022/09/30 03:53:31;;;;;;;;;;;20.60;70.10;;;;;;5168647;23;20453;-50
2022/09/30 03:55:54;;;;;;;2.38;0.82;;;20.60;69.90;;;;;;5169150;23;19919;-46
2022/09/30 03:58:19;;;;;;;2.05;0.77;;;20.60;69.70;;;;;;5170498;23;20018;-47
2022/09/30 04:00:51;;;;;;;3.80;1.35;;;20.70;69.70;;;;;;5168689;23;20119;-50
2022/09/30 04:03:14;;;;;;;3.45;1.02;;;20.70;69.70;;;;;;5168061;22;20035;-46
2022/09/30 04:05:37;;;;;;;5.85;1.00;;;20.70;69.60;;;;;;5168294;23;20023;-48
2022/09/30 04:07:59;;;;;;;4.13;0.77;;;20.70;69.50;;;;;;5166387;23;20042;-46
2022/09/30 04:10:22;;;;;;;1.75;0.63;;;20.70;69.40;;;;;;5155080;23;20016;-47
2022/09/30 04:12:44;;;;;;;2.10;0.63;;;20.80;69.40;;;;;;5159969;23;20069;-48
2022/09/30 04:15:07;;;;;;;1.85;1.00;;;20.80;69.20;;;;;;5160559;23;20016;-50
2022/09/30 04:17:30;;;;;;;3.38;1.10;;;20.80;69.20;;;;;;5160594;23;20359;-45
2022/09/30 04:19:53;;;;;;;1.95;0.88;;;20.80;69.10;;;;;;5159363;23;20035;-51
2022/09/30 04:22:15;;;;;;;1.80;0.95;;;20.80;69.00;;;;;;5158548;23;20082;-46
2022/09/30 04:24:42;;;;;;;2.10;0.90;;;20.90;68.80;;;;;;5159391;23;20414;-47
2022/09/30 04:27:04;;;;;;;3.92;1.23;;;21.00;68.80;;;;;;5152440;23;20032;-48
2022/09/30 04:29:27;;;;;;;1.73;0.70;;;21.00;68.70;;;;;;5159098;23;20020;-52
2022/09/30 04:31:50;;;;;;;3.60;1.08;;;21.10;68.50;;;;;;5160456;23;20012;-47
2022/09/30 04:34:12;;;;;;;2.10;0.90;;;21.10;68.50;;;;;;5159090;23;20043;-46
2022/09/30 04:36:35;;;;;;;3.42;1.05;;;21.20;68.50;;;;;;5159810;23;20039;-48
2022/09/30 04:38:57;;;;;;;2.22;0.95;;;21.30;68.00;;;;;;5157385;23;20020;-48
2022/09/30 04:41:20;;;;;;;3.47;0.90;;;21.30;67.80;;;;;;5160407;23;20408;-48
2022/09/30 04:43:47;;;;;;;2.67;0.90;;;21.40;67.50;;;;;;5160724;23;20020;-49
2022/09/30 04:46:10;;;;;;;2.83;1.00;;;21.40;67.40;;;;;;5159071;23;20024;-48
2022/09/30 04:48:33;;;;;;;2.13;1.15;;;21.40;67.60;;;;;;5159873;23;20125;-51
2022/09/30 04:50:56;;;;;;;3.00;0.82;;;21.50;67.60;;;;;;5159157;23;20015;-47
2022/09/30 04:53:19;;;;;;;2.17;0.80;;;21.60;67.50;;;;;;5161037;23;20070;-47
2022/09/30 04:55:42;;;;;;;1.52;0.77;;;21.70;67.00;;;;;;5159349;23;20016;-46
2022/09/30 04:58:05;;;;;;;6.45;0.85;;;21.80;67.00;;;;;;5161289;23;20127;-45
2022/09/30 05:00:27;;;;;;;2.97;0.93;;;21.90;66.60;;;;;;5159353;23;20016;-48
2022/09/30 05:02:50;;;;;;;2.28;0.98;;;21.90;66.50;;;;;;5158078;23;20051;-45
2022/09/30 05:05:13;;;;;;;2.85;0.90;;;22.00;66.10;;;;;;5158343;23;20008;-45
2022/09/30 05:07:36;;;;;;;8.77;1.13;;;22.00;66.10;;;;;;5159147;23;20342;-46
2022/09/30 05:09:59;;;;;;;5.72;0.90;;;21.90;66.20;;;;;;5157206;23;20315;-49
2022/09/30 05:12:22;;;;;;;3.77;0.80;;;21.90;66.20;;;;;;5157953;23;20102;-48
2022/09/30 05:14:45;;;;;;;1.25;0.90;;;21.90;66.30;;;;;;5156534;23;20246;-48
2022/09/30 05:17:07;;;;;;;3.75;0.93;;;21.80;66.40;;;;;;5157577;23;20042;-45
2022/09/30 05:19:30;;;;;;;2.65;0.80;;;21.90;66.30;;;;;;5157697;23;20020;-47
2022/09/30 05:21:53;;;;;;;2.50;0.77;;;21.90;66.20;;;;;;5159475;23;20027;-59
2022/09/30 05:24:16;;;;;;;5.07;1.58;;;21.90;66.40;;;;;;5158925;23;20019;-49
2022/09/30 05:26:39;;;;;;;3.95;1.70;;;21.90;65.70;;;;;;5159172;23;20028;-50
2022/09/30 05:29:02;;;;;;;4.35;1.50;;;21.90;64.90;;;;;;5160941;23;20094;-45
2022/09/30 05:31:25;;;;;;;3.45;1.10;;;21.80;64.60;;;;;;5149612;23;20019;-47
2022/09/30 05:33:48;;;;;;;3.95;1.20;;;21.80;65.10;;;;;;5150075;23;20037;-46
2022/09/30 05:36:15;;;;;;;3.83;1.25;;;21.80;65.30;;;;;;5157035;23;20016;-49
2022/09/30 05:38:37;;;;;;;4.82;1.00;;;21.90;65.40;;;;;;5149067;23;20020;-45
2022/09/30 05:41:13;;;;;;;2.80;1.17;;;22.00;65.20;;;;;;5155611;23;20087;-46
2022/09/30 05:43:38;;;;;;;3.80;1.25;;;22.00;65.10;;;;;;5164722;23;20023;-46
2022/09/30 05:46:01;;;;;;;4.97;1.08;;;22.00;65.20;;;;;;5166622;23;20030;-46
2022/09/30 05:48:25;;;;;;;3.78;1.15;;;22.00;65.50;;;;;;5163410;23;20048;-46
2022/09/30 05:50:49;;;;;;;4.53;1.75;;;22.00;66.00;;;;;;5164558;23;20070;-47
2022/09/30 05:53:11;;;;;;;2.20;0.95;;;22.00;66.10;;;;;;5154210;23;20008;-49
2022/09/30 05:55:34;;;;;;;3.45;1.20;;;22.00;66.20;;;;;;5158423;23;20635;-46
2022/09/30 05:57:57;;;;;;;3.45;1.10;;;21.90;66.30;;;;;;5157735;23;20012;-47
2022/09/30 06:00:20;;;;;;;2.88;0.80;;;21.90;66.40;;;;;;5158733;23;20077;-45
2022/09/30 06:02:43;;;;;;;3.23;1.17;;;21.90;66.30;;;;;;5150775;23;20019;-46
2022/09/30 06:05:07;;;;;;;2.55;0.80;;;21.90;66.40;;;;;;5150383;23;20344;-51
2022/09/30 06:07:29;;;;;;;2.92;1.00;;;21.80;66.40;;;;;;5126318;23;20028;-50
2022/09/30 06:09:52;;;;;;;1.70;0.80;;;21.80;66.70;;;;;;5156776;23;20103;-45
2022/09/30 06:12:15;;;;;;;2.90;1.10;;;21.90;66.70;;;;;;5156922;23;20016;-50
2022/09/30 06:14:37;;;;;;;2.07;0.80;;;21.80;66.70;;;;;;5150167;23;20012;-46
2022/09/30 06:17:00;;;;;;;3.55;1.13;;;21.80;66.70;;;;;;5156703;23;20292;-48
2022/09/30 06:19:23;;;;;;;1.67;0.95;;;21.80;66.60;;;;;;5157165;23;20145;-55
2022/09/30 06:21:46;;;;;;;3.60;1.30;;;21.80;66.30;;;;;;5157646;23;20016;-49
2022/09/30 06:24:11;;;;;;;4.03;1.40;;;21.80;65.90;;;;;;5159057;23;20015;-49
2022/09/30 06:26:34;;;;;;;5.40;1.88;;;21.70;65.30;;;;;;5150384;23;20119;-50
2022/09/30 06:28:57;;;;;;;4.25;1.52;;;21.60;65.00;;;;;;5159110;23;20019;-49
2022/09/30 06:31:19;;;;;;;4.03;1.20;;;21.60;64.90;;;;;;5159575;23;20012;-51
2022/09/30 06:33:42;;;;;;;3.10;0.98;;;21.60;65.00;;;;;;5158806;23;20410;-47
2022/09/30 06:36:05;;;;;;;2.60;1.25;;;21.60;64.90;;;;;;5150709;23;20090;-49
2022/09/30 06:38:28;;;;;;;3.75;1.35;;;21.60;64.80;;;;;;5157446;23;20073;-48
2022/09/30 06:40:50;;;;;;;2.40;1.10;;;21.50;64.80;;;;;;5157614;23;20023;-51
2022/09/30 06:43:13;;;;;;;2.90;1.27;;;21.50;65.00;;;;;;5157939;23;20397;-48
2022/09/30 06:45:36;;;;;;;2.55;1.05;;;21.40;65.00;;;;;;5148538;23;20016;-47
2022/09/30 06:48:00;;;;;;;2.28;0.90;;;21.40;65.10;;;;;;5156608;23;20024;-51
2022/09/30 06:50:22;;;;;;;4.43;1.30;;;21.30;65.10;;;;;;5157380;23;20023;-46
2022/09/30 06:52:47;;;;;;;4.13;1.20;;;21.30;65.30;;;;;;5126749;23;20528;-49
2022/09/30 06:55:09;;;;;;;;;;;21.30;65.50;;;;;;5149300;23;20028;-54
2022/09/30 06:57:33;;;;;;;2.83;1.13;;;21.20;65.60;;;;;;5127570;23;19958;-52
2022/09/30 06:59:55;;;;;;;3.13;1.30;;;21.20;65.70;;;;;;5149682;23;20066;-50
2022/09/30 07:02:18;;;;;;;4.22;1.40;;;21.10;65.70;;;;;;5158346;23;20123;-51
2022/09/30 07:04:40;;;;;;;2.28;1.25;;;21.10;65.90;;;;;;5161312;22;20035;-54
2022/09/30 07:07:03;;;;;;;2.53;1.10;;;21.00;65.90;;;;;;5157565;23;20028;-53
2022/09/30 07:09:25;;;;;;;5.38;1.80;;;21.00;66.10;;;;;;5160293;23;20012;-53
2022/09/30 07:11:48;;;;;;;2.65;1.20;;;21.00;66.10;;;;;;5158391;23;20044;-53
2022/09/30 07:14:12;;;;;;;5.40;1.58;;;21.00;66.20;;;;;;5152045;23;20095;-53
2022/09/30 07:16:35;;;;;;;2.28;0.90;;;20.90;66.30;;;;;;5151395;23;20058;-53
2022/09/30 07:18:58;;;;;;;2.92;1.40;;;20.90;66.40;;;;;;5161295;23;20012;-53
2022/09/30 07:21:21;;;;;;;2.63;0.93;;;20.90;66.50;;;;;;5158989;23;20467;-53
2022/09/30 07:23:47;;;;;;;2.47;1.35;;;20.90;66.70;;;;;;5158963;23;20407;-50
2022/09/30 07:26:10;;;;;;;2.90;1.17;;;20.90;66.70;;;;;;5153647;23;20036;-52
2022/09/30 07:28:35;;;;;;;2.10;0.90;;;20.80;66.80;;;;;;5166421;23;20016;-50
2022/09/30 07:30:59;;;;;;;2.17;1.20;;;20.80;66.80;;;;;;5157317;23;20103;-52
2022/09/30 07:33:23;;;;;;;1.33;0.80;;;20.80;66.90;;;;;;5159828;23;20020;-50
2022/09/30 07:35:56;;;;;;;4.30;1.27;;;20.70;66.90;;;;;;5167094;23;20018;-48
2022/09/30 07:38:20;;;;;;;3.25;1.40;;;20.70;67.00;;;;;;5136810;23;20500;-53
2022/09/30 07:40:55;;;;;;;3.38;1.52;;;20.70;67.70;;;;;;5167502;23;20016;-53
2022/09/30 07:43:20;;;;;;;4.72;1.83;;;20.70;67.10;;;;;;5159646;23;20044;-50
2022/09/30 07:45:42;;;;;;;5.78;2.60;;;20.70;67.20;;;;;;5167259;23;20070;-47
2022/09/30 07:48:35;;;;;;;7.43;2.55;;;20.70;67.40;;;;;;5167063;23;20020;-50
2022/09/30 07:50:47;;;;;;;8.95;3.40;;;20.70;67.40;;;;;;5156931;23;20022;-53
2022/09/30 07:53:09;;;;;;;9.70;3.40;;;20.70;67.50;;;;;;5161320;23;20525;-48
2022/09/30 07:55:33;;;;;;;8.48;3.08;;;20.60;67.50;;;;;;5160208;23;20020;-51
2022/09/30 07:57:55;;;;;;;7.85;3.03;;;20.60;67.60;;;;;;5158934;23;20016;-47
2022/09/30 08:00:18;;;;;;;8.40;3.33;;;20.60;67.70;;;;;;5159753;23;20012;-47
2022/09/30 08:02:41;;;;;;;7.60;3.53;;;20.60;67.70;;;;;;5159121;23;20070;-53
2022/09/30 08:05:04;;;;;;;7.93;3.13;;;20.60;67.80;;;;;;5160258;23;20388;-50
2022/09/30 08:07:27;;;;;;;7.88;3.88;;;20.60;67.80;;;;;;5159328;23;20020;-48
2022/09/30 08:09:50;;;;;;;7.45;3.15;;;20.60;68.00;;;;;;5159300;23;20016;-49
2022/09/30 08:12:12;;;;;;;8.05;3.20;;;20.60;68.00;;;;;;5127933;23;20024;-50
2022/09/30 08:14:35;;;;;;;7.93;3.22;;;20.50;68.00;;;;;;5161102;23;20379;-48
2022/09/30 08:16:59;;;;;;;6.40;3.15;;;20.50;68.00;;;;;;5159144;23;20028;-50
2022/09/30 08:19:22;;;;;;;;;;;20.50;68.10;;;;;;5160715;23;20015;-51
2022/09/30 08:21:45;;;;;;;7.20;2.63;;;20.50;68.10;;;;;;5167762;23;20249;-49
2022/09/30 08:24:08;;;;;;;7.65;2.85;;;20.50;68.20;;;;;;5166596;23;20416;-51
2022/09/30 08:26:32;;;;;;;5.35;2.92;;;20.50;68.20;;;;;;5168129;23;20060;-53
2022/09/30 08:28:54;;;;;;;7.55;3.08;;;20.50;68.20;;;;;;5169228;23;20012;-47
2022/09/30 08:31:20;;;;;;;7.38;2.60;;;20.50;68.20;;;;;;5168452;23;20020;-51
2022/09/30 08:33:43;;;;;;;6.30;2.20;;;20.40;68.20;;;;;;5158244;23;20046;-52
2022/09/30 08:36:07;;;;;;;5.32;2.10;;;20.40;68.20;;;;;;5167518;23;20008;-54
2022/09/30 08:38:30;;;;;;;5.10;2.20;;;20.40;68.20;;;;;;5168735;23;20018;-46
2022/09/30 08:41:15;;;;;;;6.95;2.88;;;20.40;68.20;;;;;;5168417;23;20020;-51
2022/09/30 08:44:14;;;;;;;6.47;2.10;;;20.40;68.20;;;;;;5167658;23;20012;-46
2022/09/30 08:47:13;;;;;;;7.93;2.72;;;20.40;68.20;;;;;;5166498;23;20030;-50
2022/09/30 08:50:09;;;;;;;7.43;2.70;;;20.40;68.20;;;;;;5167817;23;20096;-48
2022/09/30 08:52:39;;;;;;;5.30;2.17;;;20.30;68.20;;;;;;5166666;23;20008;-51
2022/09/30 08:55:02;;;;;;;6.40;3.13;;;20.30;68.20;;;;;;5168186;23;20023;-50
2022/09/30 08:57:27;;;;;;;5.90;2.40;;;20.30;68.20;;;;;;5168771;23;20070;-50
2022/09/30 09:00:03;;;;;;;7.40;3.00;;;20.30;68.30;;;;;;5167564;23;20020;-50
2022/09/30 09:02:37;;;;;;;5.80;2.22;;;20.30;68.30;;;;;;5166990;23;20477;-49
2022/09/30 09:05:06;;;;;;;6.22;2.17;;;20.20;68.30;;;;;;5147348;23;20047;-48
2022/09/30 09:08:04;;;;;;;6.88;2.50;;;20.30;68.30;;;;;;5158808;23;20062;-49
2022/09/30 09:10:49;;;;;;;6.15;2.22;;;20.20;68.30;;;;;;5169415;23;20011;-51
2022/09/30 09:13:29;;;;;;;5.90;2.13;;;20.20;68.40;;;;;;5160558;23;20445;-48
2022/09/30 09:16:36;;;;;;;7.22;2.35;;;20.20;68.50;;;;;;5168483;23;20020;-51
2022/09/30 09:19:01;;;;;;;8.77;2.28;;;20.20;68.60;;;;;;5162353;23;20012;-50
2022/09/30 09:21:30;;;;;;;6.20;2.50;;;20.20;68.70;;;;;;5168287;23;20353;-48
2022/09/30 09:23:56;;;;;;;6.85;2.78;;;20.20;68.60;;;;;;5137243;23;20091;-48
2022/09/30 09:26:19;;;;;;;7.80;2.47;;;20.20;68.60;;;;;;5168381;23;20448;-49
2022/09/30 09:29:03;;;;;;;4.95;2.10;;;20.10;68.60;;;;;;5168436;23;20020;-47
2022/09/30 09:31:26;;;;;;;5.22;2.50;;;20.20;68.70;;;;;;5169106;23;20100;-47
2022/09/30 09:33:49;;;;;;;7.73;2.20;;;20.20;68.70;;;;;;5168864;23;20012;-48
2022/09/30 09:36:34;;;;;;;7.05;2.35;;;20.10;68.70;;;;;;5158543;23;20341;-49
2022/09/30 09:39:21;;;;;;;9.13;2.30;;;20.10;68.60;;;;;;5169217;23;20023;-51
2022/09/30 09:42:00;;;;;;;9.27;2.72;;;20.10;68.60;;;;;;5167079;23;20044;-51
2022/09/30 09:44:31;;;;;;;7.88;2.38;;;20.10;68.60;;;;;;5168063;23;20012;-48
2022/09/30 09:47:15;;;;;;;7.00;2.30;;;20.10;68.60;;;;;;5167980;23;20530;-53
2022/09/30 09:49:39;;;;;;;;;;;20.10;68.60;;;;;;5161393;23;20012;-48
2022/09/30 09:52:14;;;;;;;5.95;2.10;;;20.00;68.50;;;;;;5168761;23;19903;-51
2022/09/30 09:54:41;;;;;;;5.20;1.88;;;20.10;68.50;;;;;;5159361;23;20027;-49
2022/09/30 09:57:11;;;;;;;6.40;2.10;;;20.00;68.40;;;;;;5165349;23;20008;-47
2022/09/30 09:59:34;;;;;;;6.78;2.13;;;20.00;68.30;;;;;;5166910;23;20015;-48
2022/09/30 10:01:59;;;;;;;5.55;1.90;;;20.00;68.30;;;;;;5156785;23;20016;-46
2022/09/30 10:04:23;;;;;;;;;;;20.00;68.30;;;;;;5167280;22;20538;-52
2022/09/30 10:07:00;;;;;;;7.25;2.45;;;20.00;68.20;;;;;;5158295;23;19915;-49
2022/09/30 10:09:39;;;;;;;8.90;2.45;;;20.00;68.10;;;;;;5169016;23;20015;-49
2022/09/30 10:12:07;;;;;;;6.15;2.60;;;20.00;68.00;;;;;;5167964;23;20016;-53
2022/09/30 10:14:30;;;;;;;5.45;2.60;;;19.90;68.00;;;;;;5166948;23;20024;-46
2022/09/30 10:16:59;;;;;;;6.65;2.30;;;19.90;68.00;;;;;;5168179;23;20027;-52
2022/09/30 10:19:26;;;;;;;7.30;2.17;;;19.90;67.90;;;;;;5167713;23;20016;-53
2022/09/30 10:21:49;;;;;;;8.38;2.13;;;19.90;67.90;;;;;;5157718;23;20035;-52
2022/09/30 10:24:28;;;;;;;7.47;2.22;;;19.90;67.90;;;;;;5163757;23;20126;-49
2022/09/30 10:26:50;;;;;;;6.82;2.08;;;19.90;67.70;;;;;;5162965;23;20028;-52
2022/09/30 10:29:34;;;;;;;5.95;2.25;;;19.90;67.60;;;;;;5162197;23;20019;-46
2022/09/30 10:32:01;;;;;;;5.78;2.22;;;19.90;67.60;;;;;;5162446;23;20489;-52
2022/09/30 10:34:32;;;;;;;6.25;2.00;;;19.80;67.50;;;;;;5163743;23;20440;-50
2022/09/30 10:36:58;;;;;;;4.25;1.98;;;19.80;67.50;;;;;;5161867;23;20271;-48
2022/09/30 10:39:25;;;;;;;7.15;2.08;;;19.80;67.40;;;;;;5154146;23;20016;-51
2022/09/30 10:41:48;;;;;;;7.28;2.10;;;19.80;67.40;;;;;;5163296;23;20026;-49
2022/09/30 10:44:23;;;;;;;6.93;2.20;;;19.80;67.50;;;;;;5164077;23;20047;-49
2022/09/30 10:46:48;;;;;;;5.82;1.88;;;19.80;67.40;;;;;;5162187;23;20024;-53
2022/09/30 10:49:24;;;;;;;6.05;1.90;;;19.80;67.50;;;;;;5154588;23;20016;-50
2022/09/30 10:51:47;;;;;;;7.13;2.33;;;19.70;67.30;;;;;;5162013;23;20048;-49
2022/09/30 10:54:42;;;;;;;7.72;2.20;;;19.70;67.30;;;;;;5164714;23;20020;-49
2022/09/30 10:57:05;;;;;;;5.50;1.92;;;19.70;67.30;;;;;;5162502;23;20047;-50
2022/09/30 10:59:36;;;;;;;4.78;2.00;;;19.70;67.20;;;;;;5164396;23;20026;-52
2022/09/30 11:02:37;;;;;;;4.78;1.88;;;19.70;67.20;;;;;;5163460;23;20050;-47
2022/09/30 11:05:14;;;;;;;5.90;2.10;;;19.70;67.20;;;;;;5155636;23;20571;-48
2022/09/30 11:07:48;;;;;;;4.60;1.95;;;19.70;67.20;;;;;;5163343;23;20024;-52
2022/09/30 11:11:08;;;;;;;5.07;1.80;;;19.70;67.20;;;;;;5163331;23;20412;-50
2022/09/30 11:13:44;;;;;;;6.60;2.10;;;19.60;67.10;;;;;;5062761;23;20010;-52
2022/09/30 11:16:09;;;;;;;5.40;2.00;;;19.70;67.10;;;;;;5163477;23;20020;-52
2022/09/30 11:18:50;;;;;;;6.25;2.17;;;19.60;67.00;;;;;;5163134;23;20067;-51
2022/09/30 11:21:18;;;;;;;7.30;2.05;;;19.60;67.00;;;;;;5150101;23;20608;-54
2022/09/30 11:23:54;;;;;;;6.80;2.03;;;19.60;66.90;;;;;;5159482;23;20008;-53
2022/09/30 11:26:33;;;;;;;6.57;2.30;;;19.60;66.90;;;;;;5163037;23;20181;-51
2022/09/30 11:29:22;;;;;;;4.85;1.90;;;19.60;66.90;;;;;;5159936;23;20032;-52
2022/09/30 11:32:14;;;;;;;5.68;2.08;;;19.60;66.90;;;;;;5159799;23;20016;-49
2022/09/30 11:34:45;;;;;;;6.90;1.92;;;19.50;66.80;;;;;;5116219;23;20020;-48
2022/09/30 11:37:43;;;;;;;6.68;2.10;;;19.50;66.70;;;;;;5161062;23;20531;-51
2022/09/30 11:40:28;;;;;;;7.97;2.78;;;19.50;66.80;;;;;;5140113;23;20356;-52
2022/09/30 11:43:08;;;;;;;6.30;1.92;;;19.50;66.80;;;;;;5163693;23;20016;-52
2022/09/30 11:45:39;;;;;;;5.72;2.05;;;19.50;66.80;;;;;;5163122;23;20428;-51
2022/09/30 11:48:17;;;;;;;7.10;2.10;;;19.50;66.70;;;;;;5166012;23;20439;-52
2022/09/30 11:50:52;;;;;;;5.57;2.15;;;19.50;66.70;;;;;;5163881;23;20487;-52
2022/09/30 11:53:45;;;;;;;6.15;1.90;;;19.40;66.50;;;;;;5134774;23;20026;-49
2022/09/30 11:56:10;;;;;;;8.68;2.58;;;19.40;66.50;;;;;;5164818;23;20020;-52
2022/09/30 11:58:42;;;;;;;7.60;2.35;;;19.40;66.50;;;;;;5165316;23;20020;-54
2022/09/30 12:01:31;;;;;;;5.32;2.20;;;19.50;66.50;;;;;;5164786;23;20019;-54
2022/09/30 12:04:28;;;;;;;6.95;2.30;;;19.40;66.40;;;;;;5155542;22;20243;-52
2022/09/30 12:06:59;;;;;;;5.38;1.95;;;19.40;66.50;;;;;;5133674;23;20066;-49
2022/09/30 12:09:26;;;;;;;5.53;2.08;;;19.40;66.40;;;;;;5165800;23;20042;-52
2022/09/30 12:12:11;;;;;;;4.57;2.00;;;19.40;66.50;;;;;;5157006;23;20016;-50
2022/09/30 12:15:14;;;;;;;4.72;1.63;;;19.40;66.40;;;;;;5156228;23;20019;-54
2022/09/30 12:17:44;;;;;;;3.20;1.73;;;19.40;66.30;;;;;;5105661;23;20046;-49
2022/09/30 12:20:28;;;;;;;4.20;1.80;;;19.40;66.30;;;;;;5158161;23;20016;-49
2022/09/30 12:23:10;;;;;;;5.20;1.83;;;19.30;66.20;;;;;;5165228;23;20028;-51
2022/09/30 12:25:46;;;;;;;5.53;1.80;;;19.30;66.00;;;;;;5167566;23;20440;-48
2022/09/30 12:31:29;;;;;;;5.85;1.98;;;19.30;66.20;;;;;;5144880;23;20012;-49
2022/09/30 12:34:13;;;;;;;4.38;1.80;;;19.30;66.10;;;;;;5160195;23;20020;-52
2022/09/30 12:36:47;;;;;;;5.75;1.90;;;19.30;66.10;;;;;;5167520;23;20019;-49
2022/09/30 12:39:31;;;;;;;8.55;2.33;;;19.20;65.90;;;;;;5169594;23;20015;-52
2022/09/30 12:42:20;;;;;;;6.32;1.73;;;19.30;66.00;;;;;;5170462;23;20405;-53
2022/09/30 12:44:42;;;;;;;4.38;1.80;;;19.20;65.90;;;;;;5169735;23;20047;-51
2022/09/30 12:47:22;;;;;;;5.65;2.00;;;19.20;65.90;;;;;;5168731;23;20024;-52
2022/09/30 12:49:46;;;;;;;3.97;1.52;;;19.20;65.90;;;;;;5158892;23;20008;-48
2022/09/30 12:52:21;;;;;;;3.72;1.52;;;19.20;65.80;;;;;;5167154;23;20016;-49
2022/09/30 12:55:20;;;;;;;5.35;2.20;;;19.20;65.90;;;;;;5169826;23;20107;-50
2022/09/30 12:57:43;;;;;;;6.30;2.28;;;19.20;65.80;;;;;;5168929;23;20016;-52
2022/09/30 13:00:21;;;;;;;5.07;1.60;;;19.20;65.70;;;;;;5168263;23;20036;-50
2022/09/30 13:02:54;;;;;;;6.72;2.15;;;19.20;65.80;;;;;;5169555;23;20094;-51
2022/09/30 13:05:32;;;;;;;3.90;1.83;;;19.10;66.00;;;;;;5159289;23;20095;-51
2022/09/30 13:08:06;;;;;;;5.25;1.75;;;19.10;65.70;;;;;;5169480;23;20028;-49